createdAt,value
2018-10-05T00:00:11.704Z,70.33
2018-10-05T00:02:40.215Z,70.44
2018-10-05T00:05:08.873Z,70.30
2018-10-05T00:07:37.468Z,70.11
2018-10-05T00:10:06.126Z,69.72
2018-10-05T00:12:34.815Z,69.80
2018-10-05T00:15:03.428Z,70.35
2018-10-05T00:17:31.992Z,70.46
2018-10-05T00:20:00.806Z,70.22
2018-10-05T00:22:29.369Z,69.71
2018-10-05T00:24:57.933Z,70.39
2018-10-05T00:27:26.473Z,70.51
2018-10-05T00:29:55.108Z,70.37
2018-10-05T00:32:23.689Z,70.28
2018-10-05T00:34:52.232Z,70.38
2018-10-05T00:37:20.756Z,70.48
2018-10-05T00:39:49.320Z,70.69
2018-10-05T00:42:17.849Z,70.37
2018-10-05T00:44:46.400Z,70.18
2018-10-05T00:47:14.972Z,71.16
2018-10-05T00:49:43.612Z,71.12
2018-10-05T00:52:12.160Z,71.12
2018-10-05T00:54:40.977Z,71.14
2018-10-05T00:57:09.503Z,71.54
2018-10-05T00:59:38.083Z,71.04
2018-10-05T01:02:06.944Z,71.38
2018-10-05T01:04:35.492Z,70.83
2018-10-05T01:07:04.112Z,71.21
2018-10-05T01:09:32.744Z,70.79
2018-10-05T01:12:01.266Z,70.97
2018-10-05T01:14:29.853Z,71.04
2018-10-05T01:16:58.636Z,71.20
2018-10-05T01:19:27.188Z,71.34
2018-10-05T01:21:55.721Z,70.91
2018-10-05T01:24:24.299Z,70.96
2018-10-05T01:26:52.959Z,71.68
2018-10-05T01:29:21.497Z,70.82
2018-10-05T01:31:50.076Z,71.68
2018-10-05T01:34:18.612Z,71.28
2018-10-05T01:36:49.158Z,71.85
2018-10-05T01:39:17.691Z,71.75
2018-10-05T01:41:46.268Z,71.96
2018-10-05T01:44:14.794Z,72.57
2018-10-05T01:46:43.371Z,72.10
2018-10-05T01:49:11.915Z,72.34
2018-10-05T01:51:40.461Z,72.48
2018-10-05T01:54:08.987Z,72.12
2018-10-05T01:56:37.544Z,71.88
2018-10-05T01:59:06.197Z,71.33
2018-10-05T02:01:34.746Z,72.06
2018-10-05T02:04:03.431Z,72.69
2018-10-05T02:06:32.032Z,72.29
2018-10-05T02:09:00.598Z,72.61
2018-10-05T02:11:29.116Z,72.40
2018-10-05T02:13:57.692Z,72.50
2018-10-05T02:16:26.203Z,72.33
2018-10-05T02:18:54.840Z,72.31
2018-10-05T02:21:23.378Z,72.48
2018-10-05T02:23:51.956Z,72.87
2018-10-05T02:26:20.699Z,72.37
2018-10-05T02:28:49.460Z,72.86
2018-10-05T02:31:18.123Z,72.66
2018-10-05T02:33:46.702Z,73.10
2018-10-05T02:36:15.636Z,73.10
2018-10-05T02:38:44.612Z,73.08
2018-10-05T02:41:14.280Z,72.92
2018-10-05T02:43:42.812Z,72.99
2018-10-05T02:46:11.443Z,72.60
2018-10-05T02:48:40.117Z,73.03
2018-10-05T02:51:08.813Z,73.34
2018-10-05T02:53:37.496Z,73.25
2018-10-05T02:56:06.180Z,73.36
2018-10-05T02:58:34.718Z,73.14
2018-10-05T03:01:14.248Z,72.71
2018-10-05T03:03:42.777Z,73.45
2018-10-05T03:06:11.313Z,72.98
2018-10-05T03:08:39.852Z,73.11
2018-10-05T03:11:08.383Z,73.05
2018-10-05T03:13:36.924Z,73.14
2018-10-05T03:16:05.479Z,73.20
2018-10-05T03:18:34.028Z,73.24
2018-10-05T03:21:02.897Z,73.40
2018-10-05T03:23:31.452Z,73.51
2018-10-05T03:26:00.026Z,72.97
2018-10-05T03:28:28.580Z,72.92
2018-10-05T03:30:57.107Z,72.89
2018-10-05T03:33:25.665Z,73.13
2018-10-05T03:35:54.217Z,73.56
2018-10-05T03:38:22.739Z,73.70
2018-10-05T03:40:51.304Z,73.83
2018-10-05T03:43:19.808Z,73.53
2018-10-05T03:45:48.324Z,73.92
2018-10-05T03:48:16.961Z,73.02
2018-10-05T03:50:45.501Z,74.03
2018-10-05T03:53:14.057Z,74.36
2018-10-05T03:55:42.606Z,73.65
2018-10-05T03:58:11.164Z,74.24
2018-10-05T04:00:39.700Z,73.74
2018-10-05T04:03:08.295Z,73.28
2018-10-05T04:05:36.836Z,74.10
2018-10-05T04:08:05.507Z,74.11
2018-10-05T04:10:34.043Z,74.50
2018-10-05T04:13:02.642Z,74.40
2018-10-05T04:15:31.325Z,74.26
2018-10-05T04:17:59.911Z,74.58
2018-10-05T04:20:28.449Z,74.85
2018-10-05T04:22:56.991Z,73.82
2018-10-05T04:25:25.563Z,73.85
2018-10-05T04:27:54.111Z,73.86
2018-10-05T04:30:22.717Z,73.65
2018-10-05T04:32:51.283Z,74.34
2018-10-05T04:35:19.844Z,74.07
2018-10-05T04:37:48.387Z,74.13
2018-10-05T04:40:17.579Z,74.37
2018-10-05T04:42:46.145Z,74.74
2018-10-05T04:45:14.703Z,73.89
2018-10-05T04:47:43.216Z,74.52
2018-10-05T04:50:11.761Z,74.21
2018-10-05T04:52:40.421Z,74.36
2018-10-05T04:55:08.980Z,74.08
2018-10-05T04:57:37.558Z,74.26
2018-10-05T05:00:06.248Z,74.23
2018-10-05T05:02:35.676Z,74.43
2018-10-05T05:05:04.240Z,75.26
2018-10-05T05:07:32.830Z,74.93
2018-10-05T05:10:01.439Z,74.65
2018-10-05T05:12:29.986Z,74.96
2018-10-05T05:14:58.546Z,75.45
2018-10-05T05:17:27.165Z,74.74
2018-10-05T05:19:55.712Z,74.79
2018-10-05T05:22:24.223Z,74.74
2018-10-05T05:24:52.795Z,74.90
2018-10-05T05:27:21.315Z,75.17
2018-10-05T05:29:49.852Z,75.60
2018-10-05T05:32:18.596Z,75.50
2018-10-05T05:34:47.148Z,75.98
2018-10-05T05:37:15.733Z,76.27
2018-10-05T05:39:44.294Z,76.43
2018-10-05T05:42:12.828Z,76.48
2018-10-05T05:44:41.367Z,76.23
2018-10-05T05:47:10.132Z,75.68
2018-10-05T05:49:38.808Z,75.86
2018-10-05T05:52:07.552Z,75.94
2018-10-05T05:54:36.138Z,76.50
2018-10-05T05:57:04.659Z,76.03
2018-10-05T05:59:33.239Z,75.98
2018-10-05T06:02:01.915Z,75.92
2018-10-05T06:04:30.464Z,76.78
2018-10-05T06:06:59.057Z,75.94
2018-10-05T06:09:27.657Z,76.12
2018-10-05T06:11:56.220Z,76.20
2018-10-05T06:14:24.773Z,76.18
2018-10-05T06:16:53.310Z,76.86
2018-10-05T06:19:21.836Z,76.68
2018-10-05T06:21:50.513Z,76.96
2018-10-05T06:24:18.992Z,77.04
2018-10-05T06:26:52.599Z,77.57
2018-10-05T06:29:21.149Z,77.42
2018-10-05T06:31:49.746Z,77.18
2018-10-05T06:34:18.274Z,77.78
2018-10-05T06:36:46.840Z,77.55
2018-10-05T06:39:15.451Z,76.72
2018-10-05T06:41:43.913Z,77.25
2018-10-05T06:44:12.465Z,77.76
2018-10-05T06:46:41.020Z,77.34
2018-10-05T06:49:09.592Z,76.93
2018-10-05T06:51:38.150Z,77.13
2018-10-05T06:54:06.740Z,77.07
2018-10-05T06:56:35.276Z,77.00
2018-10-05T06:59:03.808Z,77.37
2018-10-05T07:01:32.442Z,77.03
2018-10-05T07:04:00.903Z,78.28
2018-10-05T07:06:29.479Z,78.30
2018-10-05T07:08:58.000Z,77.76
2018-10-05T07:11:26.626Z,78.04
2018-10-05T07:13:55.216Z,78.19
2018-10-05T07:16:23.793Z,77.88
2018-10-05T07:21:55.016Z,77.71
2018-10-05T07:24:23.563Z,77.03
2018-10-05T07:26:52.099Z,77.66
2018-10-05T07:29:20.668Z,77.67
2018-10-05T07:31:49.276Z,77.96
2018-10-05T07:34:18.047Z,77.64
2018-10-05T07:36:46.623Z,76.94
2018-10-05T07:39:15.160Z,77.82
2018-10-05T07:41:43.744Z,76.44
2018-10-05T07:44:12.277Z,75.70
2018-10-05T07:46:40.837Z,75.69
2018-10-05T07:49:09.396Z,75.18
2018-10-05T07:51:37.985Z,75.43
2018-10-05T07:54:06.573Z,75.08
2018-10-05T07:56:35.115Z,75.73
2018-10-05T07:59:03.674Z,75.78
2018-10-05T08:01:32.229Z,74.48
2018-10-05T08:04:00.837Z,72.25
2018-10-05T08:06:29.403Z,70.90
2018-10-05T08:08:57.945Z,71.54
2018-10-05T08:11:26.484Z,70.60
2018-10-05T08:13:55.063Z,70.73
2018-10-05T08:16:23.601Z,70.80
2018-10-05T08:18:52.270Z,70.68
2018-10-05T08:21:20.896Z,69.92
2018-10-05T08:23:49.761Z,70.07
2018-10-05T08:26:18.335Z,69.82
2018-10-05T08:28:47.196Z,68.64
2018-10-05T08:31:15.764Z,67.99
2018-10-05T08:33:44.388Z,67.03
2018-10-05T08:36:12.903Z,66.15
2018-10-05T08:38:41.544Z,65.61
2018-10-05T08:41:10.093Z,64.32
2018-10-05T08:43:38.776Z,64.32
2018-10-05T08:46:07.400Z,64.14
2018-10-05T08:48:35.946Z,63.34
2018-10-05T08:51:04.503Z,62.67
2018-10-05T08:53:33.060Z,62.98
2018-10-05T08:56:01.650Z,62.72
2018-10-05T08:58:30.268Z,62.58
2018-10-05T09:00:58.801Z,60.91
2018-10-05T09:03:27.365Z,61.10
2018-10-05T09:05:56.084Z,60.74
2018-10-05T09:08:24.489Z,60.36
2018-10-05T09:10:53.056Z,60.08
2018-10-05T09:13:21.585Z,60.74
2018-10-05T09:15:50.107Z,59.86
2018-10-05T09:18:18.867Z,59.03
2018-10-05T09:20:47.388Z,57.46
2018-10-05T09:23:15.929Z,57.46
2018-10-05T09:25:44.446Z,55.98
2018-10-05T09:28:12.993Z,57.15
2018-10-05T09:30:41.524Z,54.49
2018-10-05T09:33:10.076Z,55.11
2018-10-05T09:35:38.684Z,52.58
2018-10-05T09:38:07.234Z,52.53
2018-10-05T09:40:35.756Z,49.46
2018-10-05T09:43:04.305Z,47.84
2018-10-05T09:45:32.840Z,48.61
2018-10-05T09:48:01.437Z,44.81
2018-10-05T09:50:29.955Z,45.79
2018-10-05T09:52:58.527Z,45.55
2018-10-05T09:55:27.101Z,48.07
2018-10-05T09:57:55.649Z,47.21
2018-10-05T10:00:40.562Z,45.38
2018-10-05T10:03:14.203Z,44.42
2018-10-05T10:05:42.743Z,44.62
2018-10-05T10:08:11.437Z,43.83
2018-10-05T10:10:39.979Z,41.61
2018-10-05T10:13:08.540Z,41.99
2018-10-05T10:15:37.120Z,41.93
2018-10-05T10:18:05.944Z,42.86
2018-10-05T10:20:34.524Z,43.20
2018-10-05T10:23:03.052Z,44.19
2018-10-05T10:25:31.657Z,43.77
2018-10-05T10:28:00.251Z,41.87
2018-10-05T10:30:28.742Z,44.20
2018-10-05T10:32:57.277Z,45.22
2018-10-05T10:35:25.823Z,45.29
2018-10-05T10:37:54.490Z,47.34
2018-10-05T10:40:23.015Z,47.11
2018-10-05T10:42:51.641Z,48.35
2018-10-05T10:45:20.175Z,45.84
2018-10-05T10:47:48.763Z,47.56
2018-10-05T10:50:17.292Z,48.01
2018-10-05T10:52:45.815Z,48.37
2018-10-05T10:55:14.363Z,47.87
2018-10-05T10:57:42.900Z,46.92
2018-10-05T11:00:11.525Z,47.29
2018-10-05T11:02:40.072Z,47.16
2018-10-05T11:05:08.623Z,46.68
2018-10-05T11:10:28.192Z,46.53
2018-10-05T11:12:56.719Z,47.10
2018-10-05T11:15:25.325Z,46.76
2018-10-05T11:17:57.880Z,45.52
2018-10-05T11:20:26.536Z,46.52
2018-10-05T11:22:55.068Z,46.86
2018-10-05T11:25:23.610Z,45.71
2018-10-05T11:27:52.227Z,46.05
2018-10-05T11:30:20.779Z,46.55
2018-10-05T11:32:49.337Z,46.37
2018-10-05T11:35:17.959Z,46.58
2018-10-05T11:37:46.484Z,45.89
2018-10-05T11:40:15.084Z,45.46
2018-10-05T11:42:43.655Z,46.25
2018-10-05T11:45:12.209Z,45.73
2018-10-05T11:47:40.736Z,46.22
2018-10-05T11:50:09.339Z,46.99
2018-10-05T11:52:37.859Z,45.92
2018-10-05T11:55:06.434Z,46.62
2018-10-05T11:57:34.960Z,46.16
2018-10-05T12:00:06.910Z,46.10
2018-10-05T12:02:35.532Z,46.41
2018-10-05T12:05:04.147Z,46.62
2018-10-05T12:07:32.696Z,47.26
2018-10-05T12:10:02.008Z,46.49
2018-10-05T12:12:30.567Z,46.87
2018-10-05T12:14:59.084Z,46.96
2018-10-05T12:17:27.854Z,46.33
2018-10-05T12:19:56.440Z,47.40
2018-10-05T12:22:25.027Z,47.53
2018-10-05T12:24:53.571Z,47.28
2018-10-05T12:27:22.125Z,46.59
2018-10-05T12:29:50.714Z,46.95
2018-10-05T12:32:19.232Z,46.25
2018-10-05T12:34:47.788Z,45.07
2018-10-05T12:37:16.466Z,45.19
2018-10-05T12:39:44.920Z,45.24
2018-10-05T12:42:13.464Z,45.42
2018-10-05T12:44:42.159Z,44.10
2018-10-05T12:47:10.713Z,43.84
2018-10-05T12:49:39.280Z,44.40
2018-10-05T12:52:07.861Z,44.84
2018-10-05T12:54:36.443Z,44.68
2018-10-05T12:57:05.051Z,44.68
2018-10-05T12:59:33.596Z,44.93
2018-10-05T13:02:02.142Z,43.76
2018-10-05T13:04:30.665Z,43.98
2018-10-05T13:06:59.224Z,44.29
2018-10-05T13:09:27.759Z,42.70
2018-10-05T13:11:56.308Z,43.55
2018-10-05T13:14:24.853Z,43.13
2018-10-05T13:16:53.414Z,41.49
2018-10-05T13:19:21.968Z,41.24
2018-10-05T13:21:50.531Z,41.66
2018-10-05T13:24:19.059Z,39.83
2018-10-05T13:26:47.608Z,41.06
2018-10-05T13:29:16.156Z,40.54
2018-10-05T13:31:44.700Z,40.27
2018-10-05T13:34:13.339Z,39.96
2018-10-05T13:36:41.800Z,40.70
2018-10-05T13:39:11.232Z,41.33
2018-10-05T13:41:40.266Z,41.33
2018-10-05T13:44:08.806Z,41.78
2018-10-05T13:46:37.363Z,41.87
2018-10-05T13:49:06.720Z,41.86
2018-10-05T13:51:36.568Z,42.46
2018-10-05T13:54:05.393Z,42.57
2018-10-05T13:56:34.356Z,42.79
2018-10-05T13:59:02.925Z,42.50
2018-10-05T14:01:31.472Z,42.71
2018-10-05T14:04:00.045Z,42.61
2018-10-05T14:06:28.614Z,43.06
2018-10-05T14:08:57.930Z,42.88
2018-10-05T14:11:26.546Z,42.25
2018-10-05T14:13:55.124Z,42.60
2018-10-05T14:19:13.799Z,42.60
2018-10-05T14:21:42.340Z,43.25
2018-10-05T14:24:10.948Z,43.82
2018-10-05T14:26:39.500Z,43.20
2018-10-05T14:29:08.077Z,42.89
2018-10-05T14:31:36.625Z,42.89
2018-10-05T14:34:05.183Z,42.41
2018-10-05T14:36:33.735Z,42.94
2018-10-05T14:39:02.352Z,42.58
2018-10-05T14:41:30.997Z,42.50
2018-10-05T14:43:59.504Z,41.87
2018-10-05T14:46:28.061Z,41.42
2018-10-05T14:48:56.665Z,41.35
2018-10-05T14:51:25.254Z,41.95
2018-10-05T14:53:53.799Z,42.10
2018-10-05T14:56:22.363Z,42.17
2018-10-05T14:58:50.994Z,42.74
2018-10-05T15:01:19.574Z,42.69
2018-10-05T15:03:48.151Z,42.46
2018-10-05T15:06:16.703Z,42.20
2018-10-05T15:08:45.242Z,42.16
2018-10-05T15:11:13.788Z,42.79
2018-10-05T15:13:42.429Z,42.58
2018-10-05T15:16:11.113Z,42.11
2018-10-05T15:18:39.660Z,42.77
2018-10-05T15:21:08.308Z,43.10
2018-10-05T15:23:36.987Z,42.84
2018-10-05T15:26:05.615Z,42.33
2018-10-05T15:28:34.187Z,43.17
2018-10-05T15:31:02.819Z,43.79
2018-10-05T15:33:31.389Z,43.70
2018-10-05T15:35:59.930Z,43.70
2018-10-05T15:38:28.495Z,44.42
2018-10-05T15:40:57.084Z,43.97
2018-10-05T15:43:25.646Z,44.27
2018-10-05T15:46:08.347Z,43.79
2018-10-05T15:51:27.088Z,43.21
2018-10-05T15:53:55.636Z,43.76
2018-10-05T15:56:24.178Z,44.41
2018-10-05T15:58:52.754Z,44.64
2018-10-05T16:01:21.278Z,44.68
2018-10-05T16:03:49.836Z,45.32
2018-10-05T16:06:18.456Z,46.14
2018-10-05T16:08:46.995Z,48.43
2018-10-05T16:11:15.567Z,48.72
2018-10-05T16:13:44.113Z,48.82
2018-10-05T16:16:12.713Z,49.08
2018-10-05T17:56:10.341Z,55.64
2018-10-05T17:58:38.871Z,55.81
2018-10-05T18:01:07.725Z,56.36
2018-10-05T18:03:37.078Z,55.88
2018-10-05T18:06:05.622Z,55.84
2018-10-05T18:08:34.216Z,55.87
2018-10-05T18:11:02.752Z,55.54
2018-10-05T18:13:31.306Z,55.40
2018-10-05T18:15:59.924Z,55.35
2018-10-05T18:18:28.508Z,55.16
2018-10-05T18:20:57.048Z,55.50
2018-10-05T18:23:25.640Z,55.43
2018-10-05T18:25:54.204Z,55.70
2018-10-05T18:28:22.732Z,56.06
2018-10-05T18:30:57.243Z,55.85
2018-10-05T18:33:25.796Z,55.93
2018-10-05T18:35:54.567Z,55.66
2018-10-05T18:38:23.136Z,55.96
2018-10-05T18:40:51.680Z,55.83
2018-10-05T18:43:20.228Z,55.85
2018-10-05T18:45:48.798Z,56.25
2018-10-05T18:48:17.343Z,56.76
2018-10-05T18:50:45.935Z,57.27
2018-10-05T18:53:14.516Z,57.41
2018-10-05T18:55:43.068Z,57.03
2018-10-05T18:58:11.632Z,56.58
2018-10-05T19:00:40.305Z,56.83
2018-10-05T19:03:08.889Z,56.89
2018-10-05T19:05:37.525Z,56.44
2018-10-05T19:08:06.467Z,57.11
2018-10-05T19:10:34.993Z,56.65
2018-10-05T19:13:03.621Z,56.46
2018-10-05T19:15:32.162Z,56.24
2018-10-05T19:18:00.691Z,56.35
2018-10-05T19:20:29.409Z,56.64
2018-10-05T19:22:58.113Z,56.99
2018-10-05T19:25:26.732Z,57.03
2018-10-05T19:27:55.289Z,57.31
2018-10-05T19:30:23.836Z,57.14
2018-10-05T19:32:52.425Z,57.26
2018-10-05T19:35:20.951Z,57.44
2018-10-05T19:37:49.819Z,57.32
2018-10-05T19:40:18.798Z,57.64
2018-10-05T19:42:47.702Z,57.43
2018-10-05T19:45:16.395Z,57.50
2018-10-05T19:47:45.215Z,57.67
2018-10-05T19:50:13.827Z,57.67
2018-10-05T19:52:42.382Z,58.63
2018-10-05T19:55:10.915Z,58.35
2018-10-05T19:57:39.477Z,58.40
2018-10-05T20:00:08.061Z,57.88
2018-10-05T20:02:37.498Z,58.53
2018-10-05T20:05:06.135Z,58.69
2018-10-05T20:07:34.695Z,59.10
2018-10-05T20:10:03.334Z,58.91
2018-10-05T20:12:31.872Z,58.81
2018-10-05T20:15:00.483Z,58.73
2018-10-05T20:17:29.020Z,58.80
2018-10-05T20:19:57.588Z,58.91
2018-10-05T20:22:26.168Z,59.02
2018-10-05T20:24:54.729Z,58.82
2018-10-05T20:27:23.268Z,59.66
2018-10-05T20:29:51.863Z,59.87
2018-10-05T20:32:20.433Z,59.84
2018-10-05T20:34:48.993Z,59.66
2018-10-05T20:37:17.614Z,60.24
2018-10-05T20:39:46.159Z,60.84
2018-10-05T20:42:14.712Z,61.05
2018-10-05T20:44:43.264Z,61.08
2018-10-05T20:47:11.864Z,61.10
2018-10-05T20:49:40.427Z,61.07
2018-10-05T20:52:08.982Z,60.56
2018-10-05T20:54:37.509Z,60.66
2018-10-05T20:57:06.116Z,60.66
2018-10-05T20:59:34.656Z,61.17
2018-10-05T21:02:03.298Z,61.89
2018-10-05T21:04:31.879Z,61.45
2018-10-05T21:07:00.427Z,61.10
2018-10-05T21:09:28.974Z,61.32
2018-10-05T21:11:57.551Z,60.59
2018-10-05T21:14:26.131Z,61.47
2018-10-05T21:16:54.671Z,61.46
2018-10-05T21:19:23.223Z,62.02
2018-10-05T21:21:51.771Z,62.00
2018-10-05T21:24:20.296Z,62.44
2018-10-05T21:26:48.844Z,62.70
2018-10-05T21:29:20.321Z,62.97
2018-10-05T21:31:48.859Z,63.11
2018-10-05T21:34:17.384Z,63.25
2018-10-05T21:36:45.978Z,62.95
2018-10-05T21:39:14.540Z,62.92
2018-10-05T21:41:43.177Z,63.16
2018-10-05T21:44:11.784Z,63.03
2018-10-05T21:46:40.677Z,62.87
2018-10-05T21:49:09.215Z,63.26
2018-10-05T21:51:37.797Z,63.77
2018-10-05T21:54:06.425Z,63.93
2018-10-05T21:56:34.971Z,64.06
2018-10-05T21:59:03.646Z,64.16
2018-10-05T22:01:32.320Z,63.77
2018-10-05T22:04:00.852Z,63.77
2018-10-05T22:06:29.396Z,64.16
2018-10-05T22:08:57.916Z,64.23
2018-10-05T22:11:26.452Z,64.48
2018-10-05T22:13:54.996Z,64.49
2018-10-05T22:16:23.515Z,64.62
